気象予報士の航空気象 さむい

*All archives   *Admin

2015.11.26 (Thu)

さむい

RJTT 250300Z 02014KT 2800 -RA BR FEW008 SCT010 BKN020 09/07 Q1018 TEMPO FEW005 BKN008 RMK 1ST008 3CU010 6SC020 A3007

RJAA 250300Z 04010KT 360V070 9000 -RA FEW008 BKN030 BKN040 09/07 Q1017 TEMPO 4000 RA BR FEW005 BKN008 RMK 1ST008 5SC030 6SC040 A3005

25日の正午、羽田成田ともに雨で気温は9度。

いきなりさむくなった。

ラーメンが恋しい。


RJTT 260300Z 33009KT 9999 FEW010 BKN020 BKN050 11/08 Q1006 NOSIG RMK 1ST010 6SC020 7SC050 A2971

RJAA 260300Z 36010KT 6000 -RA BR FEW002 SCT003 BKN005 10/09 Q1004 BECMG FEW003 BKN008 RMK 1ST002 3ST003 5ST005 A2967

26日、今日の正午の気温は羽田11℃、成田10℃。

昨日より暖かいはずなのに、寒く感じる。

ぶるぶる。

スポンサーサイト
23:18  |  気象・天気  |  TB(0)  |  CM(0)  |  EDIT  |  Top↑

コメントを投稿する


 管理者だけに表示  (非公開コメント投稿可能)

▲PageTop

この記事のトラックバックURL

→http://weathereucalyptus.blog115.fc2.com/tb.php/697-e67237b8
この記事にトラックバックする(FC2ブログユーザー)

この記事へのトラックバック

▲PageTop

 | BLOGTOP |